Time;durP1;ratioP1;P1;durP2;ratioP2;P2;SDS_P1;SDS_P2;PMS_P1;PMS_P2;Temp;Humidity;BMP_temperature;BMP_pressure;BME280_temperature;BME280_humidity;BME280_pressure;Samples;Min_cycle;Max_cycle;Signal;HPM_P1;HPM_P2
2022/09/28 00:02:30;;;;;;;2.17;1.98;;;7.60;99.90;;;;;;6275692;22;20094;-85
2022/09/28 00:05:17;;;;;;;3.28;1.95;;;7.60;99.90;;;;;;6253281;22;20019;-85
2022/09/28 00:08:05;;;;;;;2.08;1.88;;;7.60;99.90;;;;;;6277638;22;20037;-83
2022/09/28 00:10:55;;;;;;;6.82;2.20;;;7.70;99.90;;;;;;6254836;22;20023;-84
2022/09/28 00:13:48;;;;;;;3.63;1.92;;;7.70;99.90;;;;;;6275586;22;20051;-85
2022/09/28 00:16:39;;;;;;;3.92;1.73;;;7.70;99.90;;;;;;6275709;22;20024;-85
2022/09/28 00:19:26;;;;;;;4.32;2.20;;;7.70;99.90;;;;;;6276919;22;20027;-83
2022/09/28 00:22:13;;;;;;;4.53;2.10;;;7.70;99.90;;;;;;6276796;22;20023;-85
2022/09/28 00:25:03;;;;;;;3.88;1.90;;;7.80;99.90;;;;;;6276098;22;20403;-84
2022/09/28 00:27:52;;;;;;;2.63;1.63;;;7.80;99.90;;;;;;6275537;22;20047;-83
2022/09/28 00:30:39;;;;;;;2.75;1.50;;;7.80;99.90;;;;;;6278421;22;20095;-85
2022/09/28 00:33:26;;;;;;;8.52;1.95;;;7.80;99.90;;;;;;6277435;22;20028;-83
2022/09/28 00:36:18;;;;;;;4.32;1.80;;;7.90;99.90;;;;;;6276717;22;20077;-84
2022/09/28 00:39:07;;;;;;;5.00;1.80;;;7.90;99.90;;;;;;6279196;22;20438;-82
2022/09/28 00:41:54;;;;;;;5.18;1.70;;;7.90;99.90;;;;;;6276352;22;20028;-86
2022/09/28 00:44:45;;;;;;;4.50;1.60;;;7.90;99.90;;;;;;6275915;22;20051;-85
2022/09/28 00:47:49;;;;;;;5.38;1.90;;;7.90;99.90;;;;;;6277859;22;20411;-84
2022/09/28 00:50:38;;;;;;;4.82;2.15;;;7.90;99.90;;;;;;6276808;22;20106;-85
2022/09/28 00:53:30;;;;;;;4.93;2.00;;;7.90;99.90;;;;;;6279030;22;20019;-84
2022/09/28 00:56:23;;;;;;;5.32;2.00;;;7.90;99.90;;;;;;6275898;22;20032;-82
2022/09/28 00:59:11;;;;;;;6.88;1.70;;;7.90;99.90;;;;;;6275793;22;20054;-82
2022/09/28 01:01:58;;;;;;;6.63;2.17;;;8.00;99.90;;;;;;6275825;22;20038;-82
2022/09/28 01:04:46;;;;;;;7.80;2.00;;;8.00;99.90;;;;;;6276602;22;20058;-83
2022/09/28 01:07:34;;;;;;;3.97;1.70;;;8.00;99.90;;;;;;6277719;22;20384;-84
2022/09/28 01:10:24;;;;;;;6.55;1.85;;;8.00;1.00;;;;;;6276280;22;20047;-86
2022/09/28 01:13:13;;;;;;;6.18;1.80;;;8.00;1.00;;;;;;6274941;22;20020;-86
2022/09/28 01:16:26;;;;;;;5.82;2.13;;;8.10;1.00;;;;;;6277308;22;20023;-87
2022/09/28 01:19:57;;;;;;;6.30;2.00;;;8.00;2.30;;;;;;6275694;22;20430;-83
2022/09/28 01:23:08;;;;;;;6.95;2.70;;;8.00;32.80;;;;;;6253476;22;20028;-84
2022/09/28 01:26:13;;;;;;;7.80;2.92;;;8.00;1.00;;;;;;6278791;22;20028;-84
2022/09/28 01:29:12;;;;;;;8.13;2.40;;;8.10;24.60;;;;;;6255611;22;20024;-83
2022/09/28 01:32:37;;;;;;;3.92;2.10;;;8.10;54.90;;;;;;6256903;22;20371;-84
2022/09/28 01:35:46;;;;;;;9.40;2.40;;;8.10;36.70;;;;;;6155466;23;20040;-84
2022/09/28 01:38:46;;;;;;;8.70;2.63;;;8.10;1.00;;;;;;6154464;23;20031;-83
2022/09/28 01:41:50;;;;;;;9.90;2.75;;;8.10;1.00;;;;;;6155852;23;20152;-84
2022/09/28 01:44:41;;;;;;;13.35;2.35;;;8.10;1.00;;;;;;6154964;23;20063;-84
2022/09/28 01:47:35;;;;;;;11.25;2.50;;;8.10;28.80;;;;;;6264691;22;20027;-84
2022/09/28 01:50:24;;;;;;;15.07;3.13;;;8.10;1.00;;;;;;6255022;22;20326;-83
2022/09/28 01:53:28;;;;;;;12.23;2.25;;;8.10;99.90;;;;;;6277845;22;20034;-84
2022/09/28 01:56:40;;;;;;;9.32;2.40;;;8.10;1.00;;;;;;6275420;22;20020;-84
2022/09/28 01:59:31;;;;;;;8.27;2.10;;;8.00;17.00;;;;;;6275612;22;20110;-85
2022/09/28 02:02:28;;;;;;;8.20;3.40;;;8.10;23.60;;;;;;6255825;22;20342;-85
2022/09/28 02:05:20;;;;;;;14.85;3.15;;;8.10;1.00;;;;;;6255878;22;20019;-85
2022/09/28 02:08:15;;;;;;;7.85;2.50;;;8.10;99.90;;;;;;6254867;22;20026;-84
2022/09/28 02:11:12;;;;;;;11.93;2.60;;;8.20;99.90;;;;;;6276869;22;20315;-85
2022/09/28 02:14:14;;;;;;;10.35;2.72;;;8.20;99.90;;;;;;6275914;22;20024;-84
2022/09/28 02:17:02;;;;;;;9.53;2.70;;;8.20;1.00;;;;;;6256216;22;20028;-84
2022/09/28 02:19:50;;;;;;;14.30;2.97;;;8.20;99.90;;;;;;6276093;22;20035;-85
2022/09/28 02:22:50;;;;;;;14.05;2.97;;;8.20;99.90;;;;;;6278073;22;20103;-84
2022/09/28 02:25:55;;;;;;;11.05;3.08;;;8.30;1.00;;;;;;6274848;22;20020;-85
2022/09/28 02:28:42;;;;;;;5.72;2.40;;;8.20;99.90;;;;;;6275313;22;20075;-87
2022/09/28 02:31:30;;;;;;;11.02;2.58;;;8.30;1.00;;;;;;6275852;22;20020;-84
2022/09/28 02:34:17;;;;;;;15.65;3.20;;;8.30;99.90;;;;;;6256817;22;20107;-87
2022/09/28 02:37:04;;;;;;;12.90;2.83;;;8.30;99.90;;;;;;6277556;22;20432;-84
2022/09/28 02:39:51;;;;;;;9.30;2.67;;;8.30;99.90;;;;;;6278009;22;20030;-84
2022/09/28 02:43:17;;;;;;;6.57;2.80;;;8.30;91.70;;;;;;6279570;22;20117;-83
2022/09/28 02:46:17;;;;;;;11.10;2.42;;;8.30;1.00;;;;;;6252769;22;20024;-84
2022/09/28 02:49:35;;;;;;;10.02;2.85;;;8.30;99.90;;;;;;6259881;22;20024;-86
2022/09/28 02:53:05;;;;;;;7.75;1.95;;;8.30;38.60;;;;;;6278785;22;20034;-83
2022/09/28 02:56:07;;;;;;;14.43;2.60;;;8.40;99.90;;;;;;6281825;22;20035;-84
2022/09/28 02:59:02;;;;;;;10.07;2.60;;;8.30;99.90;;;;;;6276716;22;20311;-86
2022/09/28 03:02:08;;;;;;;6.40;2.40;;;8.40;99.90;;;;;;6277174;22;20761;-85
2022/09/28 03:05:21;;;;;;;5.80;1.90;;;8.30;1.00;;;;;;6275822;22;20035;-84
2022/09/28 03:08:47;;;;;;;7.47;2.00;;;8.30;99.90;;;;;;6279603;22;20035;-83
2022/09/28 03:11:45;;;;;;;8.93;3.05;;;8.30;99.90;;;;;;6277612;22;20019;-84
2022/09/28 03:14:33;;;;;;;9.63;2.83;;;8.30;1.00;;;;;;6276840;22;20098;-86
2022/09/28 03:17:20;;;;;;;8.10;2.47;;;8.30;1.00;;;;;;6279138;22;20030;-85
2022/09/28 03:20:10;;;;;;;7.53;2.60;;;8.30;99.90;;;;;;6279374;22;20050;-85
2022/09/28 03:22:58;;;;;;;12.07;2.78;;;8.30;1.00;;;;;;6278663;22;20083;-85
2022/09/28 03:26:13;;;;;;;9.25;2.45;;;8.30;99.90;;;;;;6277367;22;20297;-84
2022/09/28 03:29:03;;;;;;;8.10;2.47;;;8.30;99.90;;;;;;6257041;22;20020;-84
2022/09/28 03:31:50;;;;;;;14.77;2.65;;;8.30;1.00;;;;;;6277426;22;20019;-84
2022/09/28 03:34:39;;;;;;;7.97;2.97;;;8.30;15.20;;;;;;6279139;22;20245;-84
2022/09/28 03:37:27;;;;;;;7.78;2.65;;;8.30;99.90;;;;;;6256020;22;20099;-84
2022/09/28 03:40:14;;;;;;;9.05;3.10;;;8.30;99.90;;;;;;6277870;22;20078;-84
2022/09/28 03:43:04;;;;;;;10.10;3.50;;;8.20;99.90;;;;;;6278153;22;20034;-86
2022/09/28 03:45:52;;;;;;;8.68;3.10;;;8.30;99.90;;;;;;6257433;22;20024;-85
2022/09/28 03:48:39;;;;;;;10.50;3.20;;;8.20;99.90;;;;;;6276742;22;20024;-85
2022/09/28 03:51:27;;;;;;;8.75;2.92;;;8.20;1.00;;;;;;6277435;22;20023;-84
2022/09/28 03:54:14;;;;;;;17.98;3.22;;;8.20;1.00;;;;;;6277461;22;20024;-86
2022/09/28 03:57:01;;;;;;;8.88;3.20;;;8.20;1.00;;;;;;6277135;22;20023;-84
2022/09/28 03:59:51;;;;;;;10.45;2.80;;;8.20;1.00;;;;;;6277938;22;20391;-84
2022/09/28 04:02:38;;;;;;;6.43;3.40;;;8.20;1.00;;;;;;6276750;22;20146;-83
2022/09/28 04:05:28;;;;;;;8.63;3.17;;;8.20;1.00;;;;;;6279926;22;20046;-83
2022/09/28 04:08:15;;;;;;;10.23;3.67;;;8.20;1.00;;;;;;6278955;22;20020;-84
2022/09/28 04:11:02;;;;;;;6.00;3.10;;;8.20;1.00;;;;;;6279220;22;20300;-84
2022/09/28 04:13:49;;;;;;;7.05;3.30;;;8.20;1.00;;;;;;6279970;22;20050;-84
2022/09/28 04:16:36;;;;;;;11.68;3.58;;;8.20;1.00;;;;;;6279431;22;20115;-86
2022/09/28 04:19:24;;;;;;;11.65;3.72;;;8.20;1.00;;;;;;6253955;22;20038;-85
2022/09/28 04:22:11;;;;;;;10.00;3.83;;;8.20;1.00;;;;;;6282897;22;20038;-85
2022/09/28 04:24:59;;;;;;;8.40;3.40;;;8.20;1.00;;;;;;6254903;22;20038;-84
2022/09/28 04:30:51;;;;;;;7.47;3.40;;;8.20;1.00;;;;;;6277088;22;20106;-85
2022/09/28 04:33:39;;;;;;;12.43;3.47;;;8.20;1.00;;;;;;6279392;22;20051;-83
2022/09/28 04:36:26;;;;;;;10.23;3.30;;;8.20;1.00;;;;;;6278592;22;20023;-87
2022/09/28 04:39:15;;;;;;;12.57;3.78;;;8.20;1.00;;;;;;6279559;22;20120;-87
2022/09/28 04:42:02;;;;;;;8.75;3.72;;;8.20;1.00;;;;;;6256568;22;20455;-86
2022/09/28 04:44:56;;;;;;;10.82;3.70;;;8.20;5.10;;;;;;6277475;22;20042;-87
2022/09/28 04:47:44;;;;;;;9.25;2.78;;;8.20;8.80;;;;;;6277133;22;20030;-85
2022/09/28 04:50:31;;;;;;;7.20;2.83;;;8.20;11.30;;;;;;6278450;22;20030;-86
2022/09/28 04:53:18;;;;;;;10.52;2.75;;;8.20;14.40;;;;;;6277175;22;20038;-85
2022/09/28 04:56:10;;;;;;;2.97;1.63;;;8.10;18.90;;;;;;6277719;22;20023;-86
2022/09/28 04:58:59;;;;;;;2.90;1.80;;;8.00;18.90;;;;;;6276948;22;20492;-86
2022/09/28 05:01:52;;;;;;;6.30;1.77;;;8.00;20.80;;;;;;6279570;22;20098;-87
2022/09/28 05:04:41;;;;;;;6.85;1.80;;;7.90;20.00;;;;;;6277069;22;20032;-85
2022/09/28 05:07:30;;;;;;;4.75;1.80;;;7.80;21.30;;;;;;6256217;22;20023;-88
2022/09/28 05:10:18;;;;;;;2.78;1.45;;;7.80;22.20;;;;;;6279377;22;20031;-90
2022/09/28 05:13:12;;;;;;;2.90;1.40;;;7.70;24.90;;;;;;6275920;22;20023;-86
2022/09/28 05:16:03;;;;;;;2.08;1.30;;;7.60;25.10;;;;;;6277405;22;20043;-86
2022/09/28 05:18:58;;;;;;;7.68;1.75;;;7.60;26.10;;;;;;6276435;22;20035;-86
2022/09/28 05:21:45;;;;;;;4.35;1.50;;;7.70;33.10;;;;;;6276284;22;20034;-85
2022/09/28 05:24:32;;;;;;;3.22;1.58;;;7.60;33.90;;;;;;6278783;22;20108;-86
2022/09/28 05:27:20;;;;;;;4.03;1.70;;;7.60;34.70;;;;;;6278304;22;20094;-86
2022/09/28 05:30:11;;;;;;;8.77;2.08;;;7.60;35.50;;;;;;6276006;22;20299;-86
2022/09/28 05:33:01;;;;;;;5.93;1.77;;;7.60;42.30;;;;;;6277685;22;20362;-86
2022/09/28 05:35:50;;;;;;;7.50;2.35;;;7.60;50.90;;;;;;6277671;22;20256;-86
2022/09/28 05:38:42;;;;;;;4.10;2.00;;;7.60;59.90;;;;;;6255994;22;20019;-85
2022/09/28 05:41:32;;;;;;;6.43;2.13;;;7.60;65.10;;;;;;6252801;22;20024;-86
2022/09/28 05:44:22;;;;;;;8.70;2.17;;;7.60;66.30;;;;;;6256278;22;20102;-85
2022/09/28 05:47:09;;;;;;;6.57;2.28;;;7.60;67.20;;;;;;6278623;22;20338;-86
2022/09/28 05:49:56;;;;;;;9.48;2.58;;;7.60;68.90;;;;;;6275918;22;20030;-86
2022/09/28 05:52:46;;;;;;;5.57;1.77;;;7.60;70.80;;;;;;6276091;22;20019;-87
2022/09/28 05:55:34;;;;;;;3.33;1.48;;;7.60;71.70;;;;;;6276380;22;20066;-86
2022/09/28 05:58:21;;;;;;;2.97;1.75;;;7.60;76.80;;;;;;6275743;22;20078;-86
2022/09/28 06:01:09;;;;;;;2.45;1.60;;;7.60;80.30;;;;;;6276561;22;20126;-87
2022/09/28 06:03:56;;;;;;;4.57;1.80;;;7.60;85.10;;;;;;6277068;22;20023;-86
2022/09/28 06:06:45;;;;;;;5.63;2.00;;;7.60;85.70;;;;;;6276265;22;20425;-86
2022/09/28 06:09:32;;;;;;;3.67;1.83;;;7.70;89.60;;;;;;6276007;22;20024;-87
2022/09/28 06:12:22;;;;;;;8.60;1.80;;;7.70;92.10;;;;;;6253863;22;20102;-86
2022/09/28 06:15:09;;;;;;;8.55;2.00;;;7.70;92.00;;;;;;6276072;22;20019;-86
2022/09/28 06:18:14;;;;;;;4.97;1.58;;;7.70;92.40;;;;;;6254800;22;20074;-86
2022/09/28 06:21:02;;;;;;;4.07;2.15;;;7.70;93.60;;;;;;6254085;22;20081;-87
2022/09/28 06:23:49;;;;;;;4.25;2.20;;;7.70;93.90;;;;;;6276994;22;20362;-86
2022/09/28 06:26:38;;;;;;;4.13;2.05;;;7.70;94.90;;;;;;6253278;22;20024;-85
2022/09/28 06:29:25;;;;;;;4.30;2.10;;;7.80;96.00;;;;;;6276536;22;20023;-86
2022/09/28 06:32:13;;;;;;;5.65;2.03;;;7.80;97.50;;;;;;6253688;22;20057;-85
2022/09/28 06:35:00;;;;;;;4.07;2.05;;;7.80;99.90;;;;;;6255858;22;20363;-85
2022/09/28 06:37:47;;;;;;;5.22;1.90;;;7.90;99.90;;;;;;6255957;22;20032;-85
2022/09/28 06:40:37;;;;;;;5.68;1.92;;;7.90;99.90;;;;;;6277573;22;20055;-86
2022/09/28 06:43:26;;;;;;;5.55;2.28;;;8.00;99.90;;;;;;6256657;22;20027;-85
2022/09/28 06:46:20;;;;;;;6.45;2.25;;;8.10;99.90;;;;;;6257128;22;20093;-85
2022/09/28 06:49:08;;;;;;;3.60;2.08;;;8.20;99.90;;;;;;6278907;22;20028;-85
2022/09/28 06:51:57;;;;;;;4.75;2.00;;;8.30;99.90;;;;;;6281136;22;20033;-85
2022/09/28 06:54:45;;;;;;;4.35;1.92;;;8.30;99.90;;;;;;6280909;22;20116;-84
2022/09/28 06:57:32;;;;;;;3.47;2.13;;;8.40;99.90;;;;;;6278463;22;20027;-85
2022/09/28 07:00:19;;;;;;;3.72;2.10;;;8.40;99.90;;;;;;6278043;22;20028;-85
2022/09/28 07:03:15;;;;;;;6.13;1.98;;;8.40;99.90;;;;;;6277841;22;20035;-85
2022/09/28 07:06:03;;;;;;;3.08;1.80;;;8.60;99.90;;;;;;6257315;22;20031;-85
2022/09/28 07:08:52;;;;;;;7.28;2.85;;;8.50;99.90;;;;;;6281110;22;20026;-84
2022/09/28 07:12:09;;;;;;;7.50;3.05;;;8.60;99.90;;;;;;6266073;22;20301;-84
2022/09/28 07:14:59;;;;;;;4.22;2.45;;;8.70;99.90;;;;;;6283741;22;20020;-85
2022/09/28 07:17:47;;;;;;;5.13;2.45;;;8.90;99.90;;;;;;6260240;22;20031;-85
2022/09/28 07:20:48;;;;;;;3.85;1.60;;;9.10;99.90;;;;;;6260101;22;20023;-84
2022/09/28 07:23:40;;;;;;;;;;;9.30;99.90;;;;;;6278635;22;20160;-84
2022/09/28 07:26:38;;;;;;;2.25;1.52;;;9.40;82.60;;;;;;6279925;22;19919;-84
2022/09/28 07:29:25;;;;;;;4.10;1.85;;;9.50;10.30;;;;;;6254809;22;20120;-84
2022/09/28 07:32:12;;;;;;;3.15;1.60;;;9.40;1.00;;;;;;6256699;22;20098;-84
2022/09/28 07:35:07;;;;;;;1.40;1.30;;;9.40;99.90;;;;;;6257747;22;20027;-86
2022/09/28 07:38:02;;;;;;;6.25;1.65;;;9.20;1.00;;;;;;6256365;22;20098;-86
2022/09/28 07:44:04;;;;;;;5.70;1.45;;;8.80;90.20;;;;;;6277764;22;20027;-83
2022/09/28 07:46:51;;;;;;;4.75;1.70;;;8.70;99.90;;;;;;6277246;22;20167;-84
2022/09/28 07:49:41;;;;;;;1.95;1.55;;;8.70;99.90;;;;;;6276676;22;20111;-83
2022/09/28 07:52:33;;;;;;;3.58;2.03;;;8.70;99.90;;;;;;6254103;22;20426;-82
2022/09/28 07:55:23;;;;;;;5.03;1.60;;;8.60;1.00;;;;;;6280376;22;20020;-83
2022/09/28 07:58:13;;;;;;;5.60;2.00;;;8.60;99.90;;;;;;6257012;22;20030;-83
2022/09/28 08:01:09;;;;;;;4.65;1.73;;;8.70;99.90;;;;;;6279730;22;20031;-84
2022/09/28 08:04:00;;;;;;;3.72;1.67;;;8.70;1.00;;;;;;6256527;22;20028;-82
2022/09/28 08:06:49;;;;;;;5.80;1.75;;;8.70;99.90;;;;;;6257165;22;20038;-84
2022/09/28 08:09:39;;;;;;;7.75;2.30;;;8.70;1.00;;;;;;6278326;22;20020;-84
2022/09/28 08:12:27;;;;;;;2.50;2.05;;;8.60;99.90;;;;;;6279225;22;20414;-84
2022/09/28 08:15:17;;;;;;;4.93;2.00;;;8.70;99.90;;;;;;6255063;22;20280;-84
2022/09/28 08:18:05;;;;;;;4.50;2.10;;;8.90;99.90;;;;;;6255792;22;20085;-83
2022/09/28 08:23:59;;;;;;;8.57;2.38;;;9.20;1.00;;;;;;6276957;22;20028;-84
2022/09/28 08:26:46;;;;;;;7.70;2.42;;;9.50;1.00;;;;;;6277575;22;20039;-83
2022/09/28 08:29:33;;;;;;;7.78;2.38;;;9.70;1.00;;;;;;6254763;22;20027;-84
2022/09/28 08:32:21;;;;;;;7.35;2.30;;;9.90;99.90;;;;;;6277496;22;20027;-84
2022/09/28 08:35:08;;;;;;;8.65;2.20;;;9.90;99.90;;;;;;6276124;22;20030;-83
2022/09/28 08:37:56;;;;;;;5.70;2.20;;;10.00;35.90;;;;;;6255496;22;20023;-85
2022/09/28 08:41:04;;;;;;;5.00;2.08;;;10.20;1.00;;;;;;6277086;22;20311;-84
2022/09/28 08:44:10;;;;;;;5.22;1.92;;;10.30;99.90;;;;;;6255059;22;20028;-86
2022/09/28 08:47:06;;;;;;;4.50;1.52;;;10.40;99.90;;;;;;6255514;22;20069;-84
2022/09/28 08:49:56;;;;;;;4.60;1.55;;;10.60;99.90;;;;;;6256559;22;20308;-84
2022/09/28 08:52:50;;;;;;;6.25;2.13;;;10.60;99.90;;;;;;6278552;22;20306;-83
2022/09/28 08:55:44;;;;;;;3.03;1.55;;;10.70;99.90;;;;;;6257505;22;20038;-85
2022/09/28 08:58:36;;;;;;;2.42;1.60;;;10.70;14.30;;;;;;6276778;22;20386;-84
2022/09/28 09:01:30;;;;;;;3.83;1.52;;;10.80;9.60;;;;;;6275915;22;20051;-87
2022/09/28 09:04:17;;;;;;;5.07;2.08;;;10.80;1.00;;;;;;6255606;22;20031;-84
2022/09/28 09:07:28;;;;;;;3.22;1.42;;;10.90;1.00;;;;;;6253729;22;20102;-84
2022/09/28 09:10:21;;;;;;;3.63;1.50;;;10.90;1.00;;;;;;6236637;22;20028;-84
2022/09/28 09:13:37;;;;;;;4.30;1.60;;;10.90;1.00;;;;;;6254317;22;20023;-84
2022/09/28 09:16:42;;;;;;;5.57;1.77;;;11.00;1.00;;;;;;6257161;22;20031;-84
2022/09/28 09:19:53;;;;;;;6.55;2.05;;;11.00;1.00;;;;;;6277438;22;20110;-84
2022/09/28 09:22:44;;;;;;;6.85;1.55;;;11.00;1.00;;;;;;6276017;22;20037;-85
2022/09/28 09:25:49;;;;;;;6.43;1.80;;;11.10;1.00;;;;;;6253471;22;20031;-84
2022/09/28 09:28:42;;;;;;;4.05;1.77;;;11.20;1.00;;;;;;6276569;22;20031;-85
2022/09/28 09:31:37;;;;;;;5.18;1.58;;;11.40;1.00;;;;;;6254876;22;20057;-86
2022/09/28 09:34:31;;;;;;;5.22;1.75;;;11.70;1.00;;;;;;6276735;22;20438;-86
2022/09/28 09:37:55;;;;;;;3.33;1.48;;;11.90;1.00;;;;;;6253464;22;20416;-85
2022/09/28 09:40:52;;;;;;;7.53;2.50;;;12.00;1.00;;;;;;6156067;23;20061;-86
2022/09/28 09:44:10;;;;;;;3.90;2.15;;;12.20;99.90;;;;;;6276708;22;20117;-85
2022/09/28 09:47:38;;;;;;;3.30;1.40;;;11.80;99.90;;;;;;6278866;22;20065;-86
2022/09/28 09:50:49;;;;;;;4.65;1.67;;;11.90;99.90;;;;;;6264330;22;20085;-86
2022/09/28 09:53:42;;;;;;;4.68;1.42;;;12.10;99.90;;;;;;6276685;22;20424;-87
2022/09/28 09:56:42;;;;;;;6.90;1.60;;;12.00;99.90;;;;;;6276722;22;20046;-87
2022/09/28 09:59:36;;;;;;;3.13;1.45;;;12.00;99.90;;;;;;6255828;22;20027;-86
2022/09/28 10:02:30;;;;;;;6.55;1.88;;;12.20;99.90;;;;;;6256447;22;20146;-87
2022/09/28 10:05:24;;;;;;;5.18;1.83;;;11.80;99.90;;;;;;6254609;22;20039;-86
2022/09/28 10:08:16;;;;;;;2.85;1.65;;;11.70;99.90;;;;;;6257833;22;20024;-89
2022/09/28 10:11:13;;;;;;;4.15;1.70;;;11.80;99.90;;;;;;6280294;22;20020;-88
2022/09/28 10:14:01;;;;;;;5.28;1.63;;;11.80;99.90;;;;;;6277584;22;20027;-86
2022/09/28 10:16:53;;;;;;;9.20;1.60;;;11.70;99.90;;;;;;6258907;22;20078;-85
2022/09/28 10:19:42;;;;;;;9.10;1.80;;;11.70;99.90;;;;;;6258750;22;20034;-87
2022/09/28 10:22:31;;;;;;;5.43;1.77;;;11.70;99.90;;;;;;6259409;22;20031;-88
2022/09/28 10:25:18;;;;;;;6.82;2.25;;;11.60;99.90;;;;;;6278115;22;20038;-86
2022/09/28 10:28:15;;;;;;;4.38;1.27;;;11.60;99.90;;;;;;6277879;22;20031;-87
2022/09/28 10:31:52;;;;;;;2.72;1.27;;;11.60;99.90;;;;;;6238823;22;20079;-88
2022/09/28 10:34:42;;;;;;;6.28;1.60;;;11.70;99.90;;;;;;6250055;22;20028;-87
2022/09/28 10:37:36;;;;;;;6.22;1.33;;;11.90;99.90;;;;;;6278363;22;20024;-86
2022/09/28 10:40:30;;;;;;;3.80;1.35;;;11.90;99.90;;;;;;6281853;22;20131;-86
2022/09/28 10:43:33;;;;;;;5.22;1.70;;;12.00;99.90;;;;;;6281139;22;20034;-86
2022/09/28 10:46:22;;;;;;;3.47;1.42;;;12.10;99.90;;;;;;6262830;22;20032;-87
2022/09/28 10:49:16;;;;;;;6.03;1.80;;;12.10;99.90;;;;;;6283959;22;20054;-87
2022/09/28 10:52:07;;;;;;;5.95;1.80;;;12.10;99.90;;;;;;6263358;22;20031;-87
2022/09/28 10:54:56;;;;;;;4.40;1.50;;;12.30;99.90;;;;;;6265003;22;20023;-86
2022/09/28 10:57:43;;;;;;;3.38;1.63;;;12.30;99.90;;;;;;6260214;22;20087;-88
2022/09/28 11:00:36;;;;;;;7.28;1.60;;;12.10;99.90;;;;;;6283234;22;20051;-88
2022/09/28 11:03:27;;;;;;;4.10;1.63;;;12.30;99.90;;;;;;6285544;22;20054;-89
2022/09/28 11:06:21;;;;;;;7.53;1.98;;;12.50;99.90;;;;;;6262532;22;20107;-87
2022/09/28 11:09:41;;;;;;;3.92;1.55;;;12.80;99.90;;;;;;6259059;22;20318;-86
2022/09/28 11:12:42;;;;;;;6.53;1.90;;;12.70;99.90;;;;;;6277544;22;20024;-86
2022/09/28 11:15:33;;;;;;;4.22;1.58;;;12.50;99.90;;;;;;6279954;22;20419;-86
2022/09/28 11:18:31;;;;;;;5.57;1.65;;;12.60;99.90;;;;;;6283343;22;20028;-86
2022/09/28 11:21:27;;;;;;;5.88;1.40;;;12.60;99.90;;;;;;6260880;22;20027;-86
2022/09/28 11:24:15;;;;;;;5.28;1.52;;;12.50;99.90;;;;;;6279274;22;20047;-86
2022/09/28 11:27:18;;;;;;;4.38;1.40;;;12.60;99.90;;;;;;6276769;22;20049;-86
2022/09/28 11:30:19;;;;;;;4.45;1.13;;;13.00;99.90;;;;;;6278589;22;20023;-87
2022/09/28 11:33:18;;;;;;;4.85;1.10;;;13.40;99.90;;;;;;6257786;22;20431;-89
2022/09/28 11:36:12;;;;;;;3.88;1.30;;;13.40;99.90;;;;;;6258384;22;20027;-88
2022/09/28 11:39:16;;;;;;;4.43;1.30;;;13.20;99.90;;;;;;6254803;22;20355;-87
2022/09/28 11:42:31;;;;;;;3.90;1.33;;;13.00;99.90;;;;;;6258317;22;20042;-88
2022/09/28 11:45:28;;;;;;;2.38;1.00;;;13.00;99.90;;;;;;6255013;22;20119;-88
2022/09/28 11:48:35;;;;;;;4.28;1.10;;;13.10;99.90;;;;;;6276978;22;20324;-88
2022/09/28 11:51:35;;;;;;;8.60;1.67;;;13.10;99.90;;;;;;6277831;22;20023;-87
2022/09/28 11:54:36;;;;;;;5.43;1.30;;;13.40;99.90;;;;;;6256385;22;20114;-85
2022/09/28 11:57:32;;;;;;;2.45;1.10;;;13.40;99.90;;;;;;6257784;22;20311;-86
2022/09/28 12:00:25;;;;;;;3.33;1.55;;;13.10;99.90;;;;;;6277127;22;20095;-88
2022/09/28 12:03:19;;;;;;;5.47;1.13;;;13.30;99.90;;;;;;6278522;22;20020;-87
2022/09/28 12:06:14;;;;;;;3.42;1.85;;;13.60;99.90;;;;;;6259346;22;20019;-86
2022/09/28 12:09:25;;;;;;;10.35;1.20;;;13.60;99.90;;;;;;6276805;22;20027;-87
2022/09/28 12:12:29;;;;;;;4.88;1.48;;;13.00;99.90;;;;;;6278688;22;20421;-86
2022/09/28 12:15:37;;;;;;;3.53;1.15;;;12.80;99.90;;;;;;6276822;22;20418;-86
2022/09/28 12:19:17;;;;;;;4.93;1.25;;;12.80;99.90;;;;;;6261798;22;20054;-86
2022/09/28 12:22:37;;;;;;;8.10;1.45;;;12.40;99.90;;;;;;6278424;22;20240;-87
2022/09/28 12:25:26;;;;;;;2.92;1.13;;;12.20;99.90;;;;;;6262473;22;20079;-88
2022/09/28 12:28:55;;;;;;;5.10;1.27;;;12.30;99.90;;;;;;6278009;22;20023;-87
2022/09/28 12:31:54;;;;;;;5.05;1.52;;;12.30;99.90;;;;;;6276136;22;20434;-90
2022/09/28 12:34:42;;;;;;;5.30;1.35;;;12.30;99.90;;;;;;6277396;22;20094;-88
2022/09/28 12:37:49;;;;;;;3.35;1.33;;;12.40;99.90;;;;;;6254200;22;20034;-88
2022/09/28 12:41:01;;;;;;;4.45;1.00;;;12.50;99.90;;;;;;6279679;22;20469;-88
2022/09/28 12:44:33;;;;;;;2.60;1.00;;;12.30;99.90;;;;;;6280276;22;20073;-90
2022/09/28 12:47:29;;;;;;;7.00;1.75;;;12.00;99.90;;;;;;6271063;22;20041;-86
2022/09/28 12:50:29;;;;;;;3.40;1.75;;;11.90;99.90;;;;;;6278117;22;20306;-87
2022/09/28 12:53:55;;;;;;;3.50;1.42;;;11.80;99.90;;;;;;6259274;22;20042;-87
2022/09/28 12:57:18;;;;;;;4.40;1.50;;;12.00;99.90;;;;;;6279607;22;20129;-88
2022/09/28 13:00:14;;;;;;;4.57;1.70;;;12.10;99.90;;;;;;6229803;22;20077;-87
2022/09/28 13:03:29;;;;;;;2.97;1.30;;;11.80;99.90;;;;;;6255694;22;20030;-89
2022/09/28 13:06:35;;;;;;;2.92;1.42;;;11.90;99.90;;;;;;6278602;22;20024;-88
2022/09/28 13:09:35;;;;;;;12.68;1.60;;;12.10;99.90;;;;;;6277351;22;20073;-87
2022/09/28 13:12:52;;;;;;;6.07;1.75;;;12.50;99.90;;;;;;6279175;22;20409;-87
2022/09/28 13:16:06;;;;;;;5.38;1.50;;;13.00;99.90;;;;;;6259683;22;20020;-87
2022/09/28 13:19:13;;;;;;;2.22;1.10;;;13.40;99.90;;;;;;6258314;22;20023;-89
2022/09/28 13:22:25;;;;;;;3.05;1.23;;;13.60;99.90;;;;;;6277592;22;20027;-86
2022/09/28 13:25:19;;;;;;;2.97;1.13;;;13.70;99.90;;;;;;6257899;22;20089;-88
2022/09/28 13:28:11;;;;;;;5.88;1.27;;;13.70;99.90;;;;;;6255976;22;20290;-88
2022/09/28 13:31:01;;;;;;;2.67;1.08;;;13.30;99.90;;;;;;6276867;22;20107;-86
2022/09/28 13:33:50;;;;;;;6.40;1.20;;;12.80;99.30;;;;;;6278668;22;20261;-87
2022/09/28 13:36:38;;;;;;;4.40;1.30;;;12.40;99.90;;;;;;6258007;22;20518;-89
2022/09/28 13:39:43;;;;;;;3.90;1.30;;;12.30;99.90;;;;;;6257459;22;20034;-87
2022/09/28 13:42:57;;;;;;;7.30;1.90;;;12.40;99.90;;;;;;6257982;22;20081;-87
2022/09/28 13:45:52;;;;;;;6.30;1.45;;;12.50;99.90;;;;;;6276974;22;20130;-86
2022/09/28 13:48:51;;;;;;;3.83;1.40;;;12.30;99.90;;;;;;6276506;22;20111;-87
2022/09/28 13:52:25;;;;;;;5.13;1.40;;;12.40;99.90;;;;;;6276311;22;20134;-91
2022/09/28 13:55:38;;;;;;;3.47;1.08;;;12.30;99.90;;;;;;6277025;22;20038;-88
2022/09/28 13:58:36;;;;;;;4.63;1.38;;;12.20;99.90;;;;;;6280213;22;20051;-87
2022/09/28 14:01:30;;;;;;;5.15;1.20;;;12.20;99.90;;;;;;6277409;22;20410;-88
2022/09/28 14:04:25;;;;;;;4.07;1.10;;;12.40;99.10;;;;;;6259557;22;20049;-89
2022/09/28 14:07:33;;;;;;;3.83;0.95;;;12.60;96.90;;;;;;6276948;22;20512;-87
2022/09/28 14:10:43;;;;;;;4.28;1.33;;;12.60;96.60;;;;;;6238433;22;20047;-88
2022/09/28 14:13:40;;;;;;;4.80;0.88;;;13.00;97.60;;;;;;6281153;22;20028;-86
2022/09/28 14:16:30;;;;;;;3.00;1.20;;;13.00;90.50;;;;;;6253795;22;20417;-87
2022/09/28 14:19:32;;;;;;;2.20;1.10;;;12.90;84.60;;;;;;6256064;22;20146;-85
2022/09/28 14:22:46;;;;;;;3.63;1.00;;;12.60;81.30;;;;;;6276616;22;20073;-85
2022/09/28 14:25:39;;;;;;;3.28;1.00;;;12.60;85.80;;;;;;6276387;22;20449;-86
2022/09/28 14:28:48;;;;;;;2.78;1.40;;;12.60;84.70;;;;;;6275559;22;20024;-88
2022/09/28 14:31:41;;;;;;;6.65;1.45;;;12.60;82.00;;;;;;6279029;22;20052;-87
2022/09/28 14:34:40;;;;;;;3.17;1.02;;;12.40;72.40;;;;;;6256535;22;20020;-87
2022/09/28 14:41:14;;;;;;;4.07;1.15;;;12.40;75.70;;;;;;6277280;22;20039;-87
2022/09/28 14:44:04;;;;;;;2.30;1.13;;;12.80;76.60;;;;;;6277087;22;20048;-87
2022/09/28 14:47:24;;;;;;;2.92;1.35;;;12.90;75.70;;;;;;6253379;22;20161;-88
2022/09/28 14:50:25;;;;;;;3.30;1.75;;;12.90;67.80;;;;;;6275068;22;20024;-87
2022/09/28 14:53:21;;;;;;;5.40;1.83;;;12.90;68.10;;;;;;6278498;22;20023;-87
2022/09/28 14:56:11;;;;;;;3.97;1.25;;;12.70;76.50;;;;;;6275390;22;20098;-86
2022/09/28 14:59:01;;;;;;;1.85;1.13;;;12.60;74.20;;;;;;6276718;22;20028;-86
2022/09/28 15:02:05;;;;;;;8.95;1.58;;;12.30;69.80;;;;;;6277352;22;20103;-86
2022/09/28 15:05:14;;;;;;;3.50;1.40;;;12.30;71.80;;;;;;6279177;22;20031;-87
2022/09/28 15:08:06;;;;;;;3.45;1.13;;;12.30;69.20;;;;;;6280255;22;20031;-86
2022/09/28 15:10:57;;;;;;;3.95;1.30;;;12.10;68.30;;;;;;6280862;22;20039;-86
2022/09/28 15:13:45;;;;;;;5.45;1.25;;;12.20;77.20;;;;;;6257693;22;20370;-85
2022/09/28 15:16:32;;;;;;;2.95;1.67;;;12.30;82.90;;;;;;6281247;22;20051;-86
2022/09/28 15:19:39;;;;;;;4.72;1.63;;;12.30;85.00;;;;;;6279039;22;20032;-86
2022/09/28 15:22:29;;;;;;;3.13;1.30;;;12.10;91.50;;;;;;6278010;22;20028;-87
2022/09/28 15:25:23;;;;;;;4.72;1.30;;;11.80;93.60;;;;;;6260517;22;20110;-86
2022/09/28 15:28:18;;;;;;;4.30;1.40;;;11.70;95.80;;;;;;6280785;22;20306;-87
2022/09/28 15:31:07;;;;;;;3.53;1.40;;;11.60;98.40;;;;;;6258341;22;20069;-87
2022/09/28 15:37:07;;;;;;;2.60;1.60;;;11.60;99.90;;;;;;6280018;22;20431;-86
2022/09/28 15:39:59;;;;;;;4.10;1.55;;;11.70;99.90;;;;;;6282206;22;20040;-87